Terminal Aerodrome Forecast
Issued by NWS Huntsville, AL

Home | Current Version | Previous Version | Text Only | Print | Product List | Glossary On
Versions: 1 2 3 4 5 6 7 8 9 10 11 12 13 14 15 16 17
000
FTUS44 KHUN 261720
TAFHSV
TAF
KHSV 261720Z 2618/2718 21012G18KT P6SM FEW040 SCT250
     FM270000 20006KT P6SM BKN200
     FM271300 21008KT P6SM BKN025=

USA.gov is the U.S. government's official web portal to all federal, state and local government web resources and services.